createdAt,value
2022-09-15T00:05:09.835Z,18.35
2022-09-15T00:11:07.471Z,18.13
2022-09-15T00:17:00.846Z,18.15
2022-09-15T00:22:53.690Z,19.23
2022-09-15T00:28:45.747Z,18.90
2022-09-15T00:34:37.620Z,16.35
2022-09-15T00:40:29.658Z,19.63
2022-09-15T00:46:32.078Z,24.45
2022-09-15T00:52:27.969Z,22.20
2022-09-15T00:58:20.579Z,21.42
2022-09-15T01:04:14.691Z,18.70
2022-09-15T01:10:09.370Z,19.25
2022-09-15T01:22:24.696Z,16.90
2022-09-15T01:28:30.398Z,15.45
2022-09-15T01:34:22.747Z,12.68
2022-09-15T01:40:16.059Z,13.30
2022-09-15T01:46:09.724Z,15.88
2022-09-15T01:52:02.020Z,15.37
2022-09-15T01:57:53.929Z,15.43
2022-09-15T02:03:56.989Z,15.68
2022-09-15T02:09:54.935Z,16.33
2022-09-15T02:15:51.887Z,17.33
2022-09-15T02:21:53.538Z,18.02
2022-09-15T02:27:50.711Z,17.45
2022-09-15T02:33:46.713Z,18.10
2022-09-15T02:39:41.190Z,22.67
2022-09-15T02:45:33.842Z,20.55
2022-09-15T02:51:26.988Z,22.90
2022-09-15T02:57:18.926Z,22.40
2022-09-15T03:03:11.147Z,24.77
2022-09-15T03:09:05.568Z,22.45
2022-09-15T03:14:58.036Z,23.67
2022-09-15T03:20:50.003Z,23.52
2022-09-15T03:26:42.150Z,23.80
2022-09-15T03:32:34.141Z,20.33
2022-09-15T03:38:26.454Z,16.58
2022-09-15T03:44:19.109Z,15.35
2022-09-15T03:50:11.045Z,11.10
2022-09-15T03:56:14.405Z,10.73
2022-09-15T04:02:07.408Z,10.57
2022-09-15T04:08:00.235Z,10.97
2022-09-15T04:13:53.082Z,10.85
2022-09-15T04:19:45.059Z,11.43
2022-09-15T04:25:37.459Z,10.95
2022-09-15T04:31:30.472Z,9.93
2022-09-15T04:37:23.372Z,8.30
2022-09-15T04:43:15.252Z,8.70
2022-09-15T04:49:07.196Z,10.90
2022-09-15T04:54:59.396Z,11.80
2022-09-15T05:00:51.297Z,12.80
2022-09-15T05:06:43.369Z,13.10
2022-09-15T05:12:35.080Z,14.38
2022-09-15T05:18:27.106Z,17.35
2022-09-15T05:24:19.423Z,17.58
2022-09-15T05:30:43.623Z,16.38
2022-09-15T05:36:25.634Z,13.23
2022-09-15T05:42:19.373Z,10.98
2022-09-15T05:48:12.487Z,10.47
2022-09-15T05:54:04.313Z,9.37
2022-09-15T05:59:56.405Z,8.75
2022-09-15T06:05:48.448Z,9.30
2022-09-15T06:11:40.477Z,11.52
2022-09-15T06:17:33.204Z,10.00
2022-09-15T06:23:25.231Z,8.68
2022-09-15T06:29:17.646Z,7.53
2022-09-15T06:35:09.734Z,7.53
2022-09-15T06:41:02.594Z,7.00
2022-09-15T06:46:54.576Z,5.18
2022-09-15T06:52:46.754Z,6.10
2022-09-15T06:58:39.106Z,5.95
2022-09-15T07:10:23.745Z,4.88
2022-09-15T07:16:15.801Z,4.78
2022-09-15T07:22:07.775Z,3.90
2022-09-15T07:28:00.746Z,4.10
2022-09-15T07:33:52.908Z,4.10
2022-09-15T07:39:45.921Z,3.47
2022-09-15T07:45:38.864Z,3.92
2022-09-15T07:51:30.867Z,4.32
2022-09-15T07:57:22.806Z,4.10
2022-09-15T08:09:06.985Z,3.53
2022-09-15T08:20:51.429Z,4.10
2022-09-15T08:26:44.266Z,4.32
2022-09-15T08:32:38.006Z,3.63
2022-09-15T08:38:29.603Z,3.40
2022-09-15T08:44:22.155Z,3.08
2022-09-15T08:50:23.286Z,2.88
2022-09-15T08:56:17.828Z,3.40
2022-09-15T09:02:30.841Z,2.78
2022-09-15T09:08:22.626Z,2.92
2022-09-15T09:14:23.765Z,2.53
2022-09-15T09:20:29.665Z,3.20
2022-09-15T09:26:22.225Z,3.28
2022-09-15T09:32:21.362Z,2.53
2022-09-15T09:38:20.085Z,2.63
2022-09-15T09:44:14.386Z,2.67
2022-09-15T09:50:25.627Z,3.72
2022-09-15T09:56:22.855Z,3.50
2022-09-15T10:02:19.506Z,4.07
2022-09-15T10:08:19.915Z,3.53
2022-09-15T10:14:17.976Z,3.13
2022-09-15T10:20:22.145Z,2.80
2022-09-15T10:26:16.505Z,3.05
2022-09-15T10:32:19.025Z,2.53
2022-09-15T10:38:16.096Z,2.65
2022-09-15T10:44:26.926Z,2.55
2022-09-15T10:50:22.056Z,2.40
2022-09-15T10:56:29.857Z,2.22
2022-09-15T11:02:40.493Z,2.58
2022-09-15T11:08:41.206Z,2.60
2022-09-15T11:14:42.307Z,2.35
2022-09-15T11:20:49.205Z,2.60
2022-09-15T11:26:44.377Z,2.67
2022-09-15T11:33:02.605Z,1.75
2022-09-15T11:38:54.294Z,2.67
2022-09-15T11:44:47.835Z,2.80
2022-09-15T11:50:42.444Z,2.05
2022-09-15T11:56:37.722Z,2.20
2022-09-15T12:02:37.144Z,2.78
2022-09-15T12:08:32.665Z,3.35
2022-09-15T12:14:39.084Z,2.40
2022-09-15T12:20:37.631Z,2.30
2022-09-15T12:26:32.521Z,2.78
2022-09-15T12:32:24.971Z,2.85
2022-09-15T12:38:17.847Z,3.28
2022-09-15T12:44:33.452Z,3.63
2022-09-15T12:50:30.344Z,6.18
2022-09-15T12:56:27.183Z,4.20
2022-09-15T13:02:37.893Z,4.28
2022-09-15T13:08:30.511Z,5.07
2022-09-15T13:14:28.382Z,4.32
2022-09-15T13:20:26.217Z,4.45
2022-09-15T13:26:22.906Z,4.40
2022-09-15T13:32:21.248Z,4.40
2022-09-15T13:38:21.889Z,4.20
2022-09-15T13:44:35.476Z,3.97
2022-09-15T13:50:33.897Z,3.42
2022-09-15T13:56:41.547Z,3.40
2022-09-15T14:02:34.637Z,3.63
2022-09-15T14:08:28.257Z,3.20
2022-09-15T14:14:36.364Z,3.25
2022-09-15T14:20:33.888Z,3.30
2022-09-15T14:26:27.844Z,3.47
2022-09-15T14:32:21.355Z,3.88
2022-09-15T14:38:21.860Z,3.60
2022-09-15T14:50:42.844Z,3.40
2022-09-15T14:56:36.595Z,3.00
2022-09-15T15:02:42.038Z,3.50
2022-09-15T15:08:47.478Z,3.03
2022-09-15T15:14:41.314Z,2.75
2022-09-15T15:20:34.998Z,2.78
2022-09-15T15:26:30.589Z,2.72
2022-09-15T15:32:27.950Z,2.67
2022-09-15T15:38:25.574Z,2.40
2022-09-15T15:44:18.015Z,2.90
2022-09-15T15:50:20.237Z,2.55
2022-09-15T15:56:13.078Z,3.22
2022-09-15T16:02:10.727Z,3.30
2022-09-15T16:08:04.790Z,3.05
2022-09-15T16:13:57.624Z,3.03
2022-09-15T16:19:51.185Z,3.15
2022-09-15T16:25:47.484Z,2.88
2022-09-15T16:31:40.474Z,3.10
2022-09-15T16:37:34.175Z,3.17
2022-09-15T16:43:26.265Z,3.55
2022-09-15T16:49:18.407Z,3.30
2022-09-15T16:55:15.973Z,3.50
2022-09-15T17:01:13.929Z,3.17
2022-09-15T17:07:06.414Z,3.25
2022-09-15T17:12:58.866Z,3.30
2022-09-15T17:18:50.935Z,3.55
2022-09-15T17:24:43.275Z,3.90
2022-09-15T17:30:36.166Z,4.50
2022-09-15T17:36:28.704Z,3.78
2022-09-15T17:42:22.836Z,3.22
2022-09-15T17:48:16.205Z,3.83
2022-09-15T17:54:10.975Z,4.10
2022-09-15T18:00:04.897Z,3.60
2022-09-15T18:05:58.751Z,3.37
2022-09-15T18:11:51.560Z,2.63
2022-09-15T18:17:43.845Z,2.65
2022-09-15T18:23:37.753Z,2.97
2022-09-15T18:29:29.813Z,2.67
2022-09-15T18:35:23.067Z,3.10
2022-09-15T18:41:15.752Z,2.85
2022-09-15T18:47:07.592Z,2.35
2022-09-15T18:52:59.861Z,2.83
2022-09-15T18:58:53.778Z,3.00
2022-09-15T19:04:46.892Z,3.40
2022-09-15T19:10:42.448Z,4.83
2022-09-15T19:16:56.558Z,3.63
2022-09-15T19:22:51.858Z,3.60
2022-09-15T19:28:44.632Z,3.80
2022-09-15T19:34:38.902Z,3.90
2022-09-15T19:40:31.193Z,3.43
2022-09-15T19:46:25.070Z,4.77
2022-09-15T19:58:09.915Z,4.50
2022-09-15T20:10:12.724Z,5.13
2022-09-15T20:16:05.508Z,5.03
2022-09-15T20:21:57.701Z,4.68
2022-09-15T20:27:52.734Z,5.43
2022-09-15T20:33:46.030Z,5.57
2022-09-15T20:45:32.823Z,5.47
2022-09-15T20:51:31.832Z,4.63
2022-09-15T20:57:24.002Z,4.95
2022-09-15T21:03:16.278Z,4.90
2022-09-15T21:09:08.972Z,4.55
2022-09-15T21:15:01.470Z,3.72
2022-09-15T21:20:54.960Z,4.53
2022-09-15T21:27:05.540Z,3.93
2022-09-15T21:32:58.034Z,4.28
2022-09-15T21:38:56.480Z,4.68
2022-09-15T21:44:51.202Z,4.35
2022-09-15T21:56:36.308Z,3.53
2022-09-15T22:02:31.364Z,3.63
2022-09-15T22:08:24.432Z,3.88
2022-09-15T22:14:17.249Z,4.03
2022-09-15T22:20:09.612Z,3.92
2022-09-15T22:26:04.613Z,4.38
2022-09-15T22:37:48.981Z,3.38
2022-09-15T22:43:42.261Z,2.97
2022-09-15T22:49:34.160Z,4.18
2022-09-15T22:55:26.512Z,3.30
2022-09-15T23:07:12.312Z,3.45
2022-09-15T23:13:04.520Z,3.20
2022-09-15T23:18:56.542Z,3.35
2022-09-15T23:24:49.608Z,3.53
2022-09-15T23:30:43.445Z,2.80
2022-09-15T23:36:35.538Z,3.13
2022-09-15T23:42:27.383Z,3.53
2022-09-15T23:48:19.743Z,3.10
2022-09-15T23:54:12.435Z,3.20
